createdAt,value
2019-05-09T00:01:23.816Z,92940.33
2019-05-09T00:03:54.321Z,92949.47
2019-05-09T00:06:23.905Z,92953.13
2019-05-09T00:08:53.367Z,92939.20
2019-05-09T00:11:26.500Z,92937.47
2019-05-09T00:13:55.117Z,92932.28
2019-05-09T00:16:23.810Z,92925.53
2019-05-09T00:18:54.094Z,92926.10
2019-05-09T00:21:30.291Z,92926.89
2019-05-09T00:23:58.897Z,92919.89
2019-05-09T00:26:29.084Z,92930.54
2019-05-09T00:29:13.917Z,92929.11
2019-05-09T00:31:50.906Z,92937.09
2019-05-09T00:34:37.379Z,92923.52
2019-05-09T00:37:07.559Z,92930.40
2019-05-09T00:39:36.169Z,92936.27
2019-05-09T00:42:07.672Z,92946.05
2019-05-09T00:44:43.952Z,92945.86
2019-05-09T00:47:16.874Z,92946.68
2019-05-09T00:49:45.486Z,92948.64
2019-05-09T00:52:14.271Z,92947.86
2019-05-09T00:54:45.804Z,92941.64
2019-05-09T00:57:16.029Z,92938.03
2019-05-09T00:59:44.730Z,92937.63
2019-05-09T01:02:13.336Z,92934.77
2019-05-09T01:04:43.802Z,92930.71
2019-05-09T01:07:13.948Z,92934.02
2019-05-09T01:09:44.480Z,92930.33
2019-05-09T01:12:14.357Z,92923.10
2019-05-09T01:14:43.346Z,92927.63
2019-05-09T01:17:13.632Z,92925.08
2019-05-09T01:19:43.270Z,92928.42
2019-05-09T01:22:13.230Z,92927.87
2019-05-09T01:24:44.182Z,92932.43
2019-05-09T01:27:14.231Z,92928.81
2019-05-09T01:29:43.901Z,92929.05
2019-05-09T01:32:20.343Z,92930.77
2019-05-09T01:34:48.973Z,92931.52
2019-05-09T01:37:17.620Z,92934.31
2019-05-09T01:39:46.285Z,92941.53
2019-05-09T01:42:14.957Z,92942.28
2019-05-09T01:44:44.144Z,92950.22
2019-05-09T01:47:14.124Z,92950.72
2019-05-09T01:49:43.286Z,92948.77
2019-05-09T01:52:13.783Z,92946.52
2019-05-09T01:54:45.976Z,92946.31
2019-05-09T01:57:14.594Z,92956.17
2019-05-09T01:59:44.350Z,92949.50
2019-05-09T02:02:14.209Z,92945.53
2019-05-09T02:04:43.978Z,92943.66
2019-05-09T02:07:13.452Z,92944.84
2019-05-09T02:09:43.420Z,92936.75
2019-05-09T02:12:14.143Z,92940.98
2019-05-09T02:14:47.881Z,92942.91
2019-05-09T02:17:23.245Z,92940.55
2019-05-09T02:19:53.303Z,92930.15
2019-05-09T02:22:34.711Z,92928.89
2019-05-09T02:25:05.635Z,92925.59
2019-05-09T02:27:34.313Z,92923.23
2019-05-09T02:30:05.887Z,92917.98
2019-05-09T02:32:34.738Z,92918.42
2019-05-09T02:35:05.253Z,92915.35
2019-05-09T02:37:33.859Z,92921.45
2019-05-09T02:40:02.563Z,92920.38
2019-05-09T02:42:31.199Z,92928.79
2019-05-09T02:44:59.885Z,92933.09
2019-05-09T02:47:29.136Z,92945.02
2019-05-09T02:49:59.023Z,92942.74
2019-05-09T02:52:28.797Z,92959.06
2019-05-09T02:54:58.428Z,92963.42
2019-05-09T02:57:29.908Z,92977.00
2019-05-09T03:00:09.590Z,92980.25
2019-05-09T03:02:39.854Z,92993.19
2019-05-09T03:05:08.999Z,92996.55
2019-05-09T03:07:50.120Z,92997.44
2019-05-09T03:10:19.926Z,92998.69
2019-05-09T03:12:50.351Z,93002.80
2019-05-09T03:15:20.619Z,93008.07
2019-05-09T03:17:49.955Z,93012.92
2019-05-09T03:20:39.001Z,93019.86
2019-05-09T03:23:09.088Z,93023.69
2019-05-09T03:25:40.506Z,93017.22
2019-05-09T03:28:09.736Z,93027.53
2019-05-09T03:30:45.632Z,93029.76
2019-05-09T03:33:14.245Z,93037.47
2019-05-09T03:35:44.494Z,93029.34
2019-05-09T03:38:13.163Z,93028.47
2019-05-09T03:40:41.785Z,93025.83
2019-05-09T03:43:10.447Z,93018.80
2019-05-09T03:45:48.096Z,93019.91
2019-05-09T03:48:37.499Z,93018.66
2019-05-09T03:51:08.106Z,93021.95
2019-05-09T03:53:37.961Z,93018.98
2019-05-09T03:56:08.393Z,93019.30
2019-05-09T03:58:38.616Z,93028.41
2019-05-09T04:01:10.417Z,93021.89
2019-05-09T04:03:37.963Z,93026.34
2019-05-09T04:06:08.244Z,93024.30
2019-05-09T04:08:37.665Z,93015.38
2019-05-09T04:11:08.639Z,93010.80
2019-05-09T04:13:39.055Z,93018.30
2019-05-09T04:16:07.715Z,93005.11
2019-05-09T04:18:37.639Z,93006.78
2019-05-09T04:21:08.465Z,93011.81
2019-05-09T04:23:37.981Z,93007.42
2019-05-09T04:26:24.515Z,93011.83
2019-05-09T04:28:53.220Z,93006.92
2019-05-09T04:31:21.837Z,93010.66
2019-05-09T04:33:50.528Z,93015.69
2019-05-09T04:36:20.764Z,93016.98
2019-05-09T04:38:49.512Z,93025.41
2019-05-09T04:41:23.829Z,93030.54
2019-05-09T04:43:50.034Z,93027.48
2019-05-09T04:46:24.479Z,93023.09
2019-05-09T04:48:54.042Z,93027.11
2019-05-09T04:51:25.120Z,93023.73
2019-05-09T04:53:53.807Z,93018.29
2019-05-09T04:56:27.867Z,93027.06
2019-05-09T04:58:58.355Z,93027.26
2019-05-09T05:01:34.863Z,93025.41
2019-05-09T05:04:03.489Z,93020.52
2019-05-09T05:06:33.799Z,93013.80
2019-05-09T05:09:02.489Z,93015.69
2019-05-09T05:11:31.165Z,93008.66
2019-05-09T05:14:02.978Z,93010.85
2019-05-09T05:16:31.698Z,93007.05
2019-05-09T05:19:01.008Z,93007.71
2019-05-09T05:21:32.578Z,93006.64
2019-05-09T05:24:04.399Z,93003.08
2019-05-09T05:26:33.008Z,93006.14
2019-05-09T05:29:03.267Z,93005.61
2019-05-09T05:31:31.949Z,93004.89
2019-05-09T05:34:18.248Z,93005.34
2019-05-09T05:36:50.221Z,93000.62
2019-05-09T05:39:18.945Z,93007.14
2019-05-09T05:41:48.406Z,93010.89
2019-05-09T05:44:17.847Z,93018.16
2019-05-09T05:46:50.735Z,93022.63
2019-05-09T05:49:18.771Z,93026.70
2019-05-09T05:51:51.209Z,93016.58
2019-05-09T05:54:21.120Z,93011.24
2019-05-09T05:56:49.784Z,93007.51
2019-05-09T05:59:18.889Z,93017.31
2019-05-09T06:01:48.018Z,93032.80
2019-05-09T06:04:18.619Z,93027.07
2019-05-09T06:06:48.123Z,93020.73
2019-05-09T06:09:18.873Z,93019.72
2019-05-09T06:11:48.473Z,93024.43
2019-05-09T06:14:18.451Z,93029.98
2019-05-09T06:16:48.618Z,93032.80
2019-05-09T06:19:17.923Z,93033.78
2019-05-09T06:21:49.236Z,93036.00
2019-05-09T06:24:18.279Z,93042.61
2019-05-09T06:26:48.056Z,93040.30
2019-05-09T06:29:17.733Z,93045.52
2019-05-09T06:31:48.500Z,93046.81
2019-05-09T06:34:18.759Z,93037.38
2019-05-09T06:36:48.835Z,93033.89
2019-05-09T06:39:18.155Z,93030.84
2019-05-09T06:41:48.333Z,93024.65
2019-05-09T06:44:20.645Z,93023.08
2019-05-09T06:46:53.929Z,93023.82
2019-05-09T06:49:29.382Z,93017.85
2019-05-09T06:51:54.596Z,93021.39
2019-05-09T06:54:24.786Z,93030.50
2019-05-09T06:56:53.515Z,93031.88
2019-05-09T06:59:22.241Z,93032.70
2019-05-09T07:01:52.544Z,93032.09
2019-05-09T07:04:22.717Z,93038.67
2019-05-09T07:06:55.750Z,93044.72
2019-05-09T07:09:27.970Z,93046.89
2019-05-09T07:11:58.584Z,93039.35
2019-05-09T07:14:32.300Z,93031.48
2019-05-09T07:16:58.940Z,93035.70
2019-05-09T07:19:28.078Z,93032.91
2019-05-09T07:22:13.796Z,93019.08
2019-05-09T07:25:06.746Z,93003.55
2019-05-09T07:27:32.495Z,92991.81
2019-05-09T07:30:02.744Z,92996.02
2019-05-09T07:32:38.212Z,92998.90
2019-05-09T07:35:08.937Z,93017.04
2019-05-09T07:37:38.032Z,93034.16
2019-05-09T07:40:08.608Z,93036.44
2019-05-09T07:42:39.119Z,93035.69
2019-05-09T07:45:09.095Z,93054.11
2019-05-09T07:47:38.732Z,93052.50
2019-05-09T07:50:08.565Z,93049.28
2019-05-09T07:52:38.761Z,93058.98
2019-05-09T07:55:08.871Z,93060.55
2019-05-09T07:57:46.226Z,93064.55
2019-05-09T08:00:09.705Z,93065.19
2019-05-09T08:02:38.765Z,93072.97
2019-05-09T08:05:08.725Z,93070.85
2019-05-09T08:07:38.386Z,93075.96
2019-05-09T08:10:10.924Z,93085.84
2019-05-09T08:12:38.902Z,93083.44
2019-05-09T08:15:16.086Z,93092.36
2019-05-09T08:17:38.437Z,93096.48
2019-05-09T08:20:08.005Z,93097.04
2019-05-09T08:22:42.176Z,93102.23
2019-05-09T08:25:08.316Z,93098.83
2019-05-09T08:27:37.804Z,93100.01
2019-05-09T08:30:08.064Z,93084.94
2019-05-09T08:32:37.705Z,93078.55
2019-05-09T08:35:08.306Z,93080.15
2019-05-09T08:37:39.025Z,93081.00
2019-05-09T08:40:08.140Z,93082.48
2019-05-09T08:42:37.846Z,93075.58
2019-05-09T08:45:17.382Z,93072.98
2019-05-09T08:47:38.246Z,93068.06
2019-05-09T08:50:17.615Z,93070.76
2019-05-09T08:52:48.212Z,93065.20
2019-05-09T08:55:17.482Z,93065.58
2019-05-09T08:57:49.035Z,93062.12
2019-05-09T09:00:18.881Z,93068.05
2019-05-09T09:02:48.338Z,93076.02
2019-05-09T09:05:18.635Z,93074.64
2019-05-09T09:07:48.749Z,93070.18
2019-05-09T09:10:18.835Z,93067.00
2019-05-09T09:12:48.001Z,93069.33
2019-05-09T09:15:17.991Z,93067.52
2019-05-09T09:17:49.064Z,93069.42
2019-05-09T09:20:18.220Z,93064.83
2019-05-09T09:22:48.040Z,93057.39
2019-05-09T09:25:18.352Z,93056.22
2019-05-09T09:27:50.872Z,93054.87
2019-05-09T09:30:24.739Z,93060.69
2019-05-09T09:32:51.351Z,93061.80
2019-05-09T09:35:20.067Z,93056.05
2019-05-09T09:37:52.159Z,93063.59
2019-05-09T09:40:19.283Z,93063.50
2019-05-09T09:42:49.057Z,93057.98
2019-05-09T09:45:18.507Z,93063.23
2019-05-09T09:47:48.467Z,93061.36
2019-05-09T09:50:17.809Z,93066.34
2019-05-09T09:52:49.156Z,93068.81
2019-05-09T09:55:18.473Z,93061.39
2019-05-09T09:57:48.498Z,93061.22
2019-05-09T10:00:31.223Z,93064.41
2019-05-09T10:02:59.856Z,93066.84
2019-05-09T10:05:28.762Z,93065.37
2019-05-09T10:07:58.181Z,93061.23
2019-05-09T10:10:35.231Z,93058.18
2019-05-09T10:13:04.314Z,93061.28
2019-05-09T10:15:34.810Z,93053.12
2019-05-09T10:18:07.364Z,93047.51
2019-05-09T10:20:42.700Z,93054.00
2019-05-09T10:23:18.121Z,93052.49
2019-05-09T10:25:41.992Z,93055.11
2019-05-09T10:28:10.665Z,93049.63
2019-05-09T10:30:39.312Z,93037.38
2019-05-09T10:33:09.193Z,93028.51
2019-05-09T10:35:39.246Z,93021.50
2019-05-09T10:38:08.870Z,93025.33
2019-05-09T10:40:39.812Z,93030.29
2019-05-09T10:43:35.959Z,93029.46
2019-05-09T10:46:19.050Z,93026.41
2019-05-09T10:48:48.071Z,93025.58
2019-05-09T10:51:18.544Z,93032.02
2019-05-09T10:53:48.141Z,93026.67
2019-05-09T10:56:18.783Z,93019.00
2019-05-09T10:58:48.365Z,93016.53
2019-05-09T11:01:18.447Z,93017.73
2019-05-09T11:03:48.450Z,93009.45
2019-05-09T11:06:18.561Z,93000.88
2019-05-09T11:08:48.050Z,93000.11
2019-05-09T11:11:18.355Z,92994.34
2019-05-09T11:13:48.170Z,92997.25
2019-05-09T11:16:18.375Z,92986.25
2019-05-09T11:18:48.261Z,92990.98
2019-05-09T11:21:19.309Z,92993.34
2019-05-09T11:23:50.119Z,92990.95
2019-05-09T11:26:18.807Z,92984.90
2019-05-09T11:28:47.473Z,92986.53
2019-05-09T11:31:18.394Z,92983.43
2019-05-09T11:33:48.451Z,92980.28
2019-05-09T11:36:21.233Z,92982.38
2019-05-09T11:38:49.700Z,92985.50
2019-05-09T11:41:19.489Z,92984.22
2019-05-09T11:43:48.759Z,92973.52
2019-05-09T11:46:19.763Z,92982.91
2019-05-09T11:48:48.126Z,92980.55
2019-05-09T11:51:20.424Z,92979.00
2019-05-09T11:53:48.560Z,92976.92
2019-05-09T11:56:18.217Z,92972.48
2019-05-09T11:58:48.172Z,92977.41
2019-05-09T12:01:19.370Z,92978.72
2019-05-09T12:03:51.941Z,92969.55
2019-05-09T12:06:20.210Z,92974.58
2019-05-09T12:08:48.583Z,92965.37
2019-05-09T12:11:18.173Z,92969.30
2019-05-09T12:13:48.702Z,92973.91
2019-05-09T12:16:18.371Z,92978.89
2019-05-09T12:18:48.811Z,92977.78
2019-05-09T12:21:19.010Z,92977.78
2019-05-09T12:23:49.075Z,92977.92
2019-05-09T12:26:18.723Z,92981.72
2019-05-09T12:28:48.363Z,92987.77
2019-05-09T12:31:18.068Z,92986.66
2019-05-09T12:33:48.405Z,92990.23
2019-05-09T12:36:18.997Z,92978.30
2019-05-09T12:38:49.836Z,92976.39
2019-05-09T12:41:19.628Z,92979.96
2019-05-09T12:43:49.889Z,92977.80
2019-05-09T12:46:18.725Z,92975.06
2019-05-09T12:48:49.026Z,92973.82
2019-05-09T12:51:18.466Z,92968.75
2019-05-09T12:53:48.514Z,92968.43
2019-05-09T12:56:18.756Z,92962.23
2019-05-09T12:58:47.909Z,92966.94
2019-05-09T13:01:19.026Z,92970.19
2019-05-09T13:03:48.571Z,92962.18
2019-05-09T13:06:20.218Z,92964.54
2019-05-09T13:08:48.186Z,92958.11
2019-05-09T13:11:20.205Z,92953.72
2019-05-09T13:13:49.149Z,92957.98
2019-05-09T13:16:44.185Z,92949.34
2019-05-09T13:19:03.853Z,92945.34
2019-05-09T13:21:33.304Z,92949.16
2019-05-09T13:24:02.435Z,92940.75
2019-05-09T13:26:31.211Z,92944.27
2019-05-09T13:28:59.864Z,92937.17
2019-05-09T13:31:29.422Z,92936.45
2019-05-09T13:33:58.733Z,92934.95
2019-05-09T13:36:28.381Z,92928.58
2019-05-09T13:39:04.208Z,92930.44
2019-05-09T13:41:27.997Z,92923.45
2019-05-09T13:43:59.122Z,92920.52
2019-05-09T13:46:28.554Z,92921.98
2019-05-09T13:49:11.023Z,92926.06
2019-05-09T13:51:27.727Z,92927.17
2019-05-09T13:53:59.098Z,92925.08
2019-05-09T13:56:28.033Z,92922.92
2019-05-09T13:58:58.150Z,92920.70
2019-05-09T14:01:27.276Z,92913.75
2019-05-09T14:03:57.738Z,92908.28
2019-05-09T14:06:27.732Z,92908.37
2019-05-09T14:08:59.492Z,92906.96
2019-05-09T14:11:29.195Z,92906.41
2019-05-09T14:14:00.470Z,92904.38
2019-05-09T14:16:29.157Z,92912.87
2019-05-09T14:19:23.951Z,92897.92
2019-05-09T14:21:30.034Z,92912.17
2019-05-09T14:24:10.996Z,92911.66
2019-05-09T14:26:29.215Z,92908.59
2019-05-09T14:28:58.364Z,92908.42
2019-05-09T14:31:32.135Z,92907.52
2019-05-09T14:33:57.631Z,92905.92
2019-05-09T14:36:27.771Z,92899.53
2019-05-09T14:38:57.987Z,92904.77
2019-05-09T14:41:27.769Z,92904.19
2019-05-09T14:43:56.614Z,92901.23
2019-05-09T14:46:25.327Z,92897.75
2019-05-09T14:48:53.971Z,92911.42
2019-05-09T14:51:22.663Z,92908.11
2019-05-09T14:53:51.491Z,92907.25
2019-05-09T14:56:23.057Z,92909.22
2019-05-09T14:58:51.762Z,92909.34
2019-05-09T15:01:20.401Z,92909.39
2019-05-09T15:03:49.107Z,92912.23
2019-05-09T15:06:18.360Z,92918.53
2019-05-09T15:08:48.262Z,92919.60
2019-05-09T15:11:18.527Z,92922.18
2019-05-09T15:13:47.791Z,92917.80
2019-05-09T15:16:18.456Z,92918.21
2019-05-09T15:18:48.637Z,92919.53
2019-05-09T15:21:19.212Z,92916.02
2019-05-09T15:23:48.328Z,92918.94
2019-05-09T15:26:17.780Z,92921.17
2019-05-09T15:28:48.497Z,92920.71
2019-05-09T15:31:18.289Z,92926.78
2019-05-09T15:33:48.579Z,92933.07
2019-05-09T15:36:19.330Z,92945.63
2019-05-09T15:38:48.754Z,92962.17
2019-05-09T15:41:18.361Z,92967.20
2019-05-09T15:43:49.501Z,92982.94
2019-05-09T15:46:22.546Z,92992.91
2019-05-09T15:48:52.718Z,92997.63
2019-05-09T15:51:21.412Z,93013.08
2019-05-09T15:53:53.201Z,93030.47
2019-05-09T15:56:22.609Z,93040.24
2019-05-09T15:58:51.254Z,93028.25
2019-05-09T16:01:19.950Z,93023.30
2019-05-09T16:03:48.906Z,93026.42
2019-05-09T16:06:19.579Z,93009.74
2019-05-09T16:08:48.364Z,93014.19
2019-05-09T16:11:17.987Z,93011.05
2019-05-09T16:13:48.979Z,93015.47
2019-05-09T16:16:17.811Z,93013.13
2019-05-09T16:18:48.717Z,93023.05
2019-05-09T16:21:17.061Z,93027.47
2019-05-09T16:23:45.717Z,93024.34
2019-05-09T16:26:14.796Z,93030.10
2019-05-09T16:28:43.446Z,93028.53
2019-05-09T16:31:13.576Z,93019.14
2019-05-09T16:33:42.181Z,93024.86
2019-05-09T16:36:12.447Z,93014.97
2019-05-09T16:38:45.754Z,93013.92
2019-05-09T16:41:11.602Z,93012.63
2019-05-09T16:43:41.927Z,93006.33
2019-05-09T16:46:10.975Z,93000.34
2019-05-09T16:48:39.854Z,93000.86
2019-05-09T16:51:08.602Z,93002.67
2019-05-09T16:53:37.250Z,93002.09
2019-05-09T16:56:08.182Z,93012.01
2019-05-09T16:58:59.341Z,93007.00
2019-05-09T17:01:28.498Z,93010.13
2019-05-09T17:03:59.507Z,93004.02
2019-05-09T17:06:31.279Z,93003.23
2019-05-09T17:09:00.257Z,93001.86
2019-05-09T17:11:29.067Z,93014.55
2019-05-09T17:13:58.462Z,93018.95
2019-05-09T17:16:28.458Z,93018.34
2019-05-09T17:18:58.217Z,93015.78
2019-05-09T17:21:48.088Z,93013.91
2019-05-09T17:24:18.532Z,93025.64
2019-05-09T17:26:48.894Z,93029.71
2019-05-09T17:29:18.520Z,93029.95
2019-05-09T17:31:48.817Z,93020.88
2019-05-09T17:34:18.216Z,93028.40
2019-05-09T17:36:47.888Z,93039.82
2019-05-09T17:39:18.608Z,93045.97
2019-05-09T17:41:47.002Z,93055.05
2019-05-09T17:44:15.650Z,93057.83
2019-05-09T17:46:44.461Z,93050.84
2019-05-09T17:49:13.249Z,93050.43
2019-05-09T17:51:41.960Z,93057.41
2019-05-09T17:54:11.099Z,93059.85
2019-05-09T17:56:40.041Z,93071.98
2019-05-09T17:59:09.039Z,93073.47
2019-05-09T18:01:37.859Z,93074.50
2019-05-09T18:04:08.934Z,93088.95
2019-05-09T18:06:38.077Z,93105.14
2019-05-09T18:09:08.500Z,93120.92
2019-05-09T18:11:37.798Z,93138.72
2019-05-09T18:14:08.120Z,93158.16
2019-05-09T18:16:39.199Z,93167.86
2019-05-09T18:19:09.071Z,93169.40
2019-05-09T18:21:50.363Z,93156.90
2019-05-09T18:24:08.856Z,93164.55
2019-05-09T18:26:38.372Z,93166.95
2019-05-09T18:29:07.255Z,93158.74
2019-05-09T18:31:53.860Z,93166.05
2019-05-09T18:34:22.627Z,93176.06
2019-05-09T18:36:52.486Z,93170.91
2019-05-09T18:39:22.991Z,93171.76
2019-05-09T18:41:53.674Z,93173.98
2019-05-09T18:44:22.053Z,93173.40
2019-05-09T18:46:51.289Z,93171.48
2019-05-09T18:49:20.101Z,93175.72
2019-05-09T18:52:02.600Z,93174.68
2019-05-09T18:54:20.727Z,93187.86
2019-05-09T18:56:49.578Z,93193.17
2019-05-09T18:59:18.737Z,93190.21
2019-05-09T19:01:47.706Z,93196.23
2019-05-09T19:04:18.036Z,93190.52
2019-05-09T19:06:46.727Z,93197.36
2019-05-09T19:09:15.435Z,93201.83
2019-05-09T19:11:45.986Z,93201.36
2019-05-09T19:14:22.023Z,93207.02
2019-05-09T19:16:59.489Z,93209.44
2019-05-09T19:19:38.917Z,93203.83
2019-05-09T19:22:21.448Z,93206.31
2019-05-09T19:24:38.699Z,93213.22
2019-05-09T19:27:07.623Z,93209.45
2019-05-09T19:29:36.884Z,93211.22
2019-05-09T19:32:07.295Z,93214.60
2019-05-09T19:34:36.229Z,93219.52
2019-05-09T19:37:05.186Z,93230.91
2019-05-09T19:39:34.099Z,93225.17
2019-05-09T19:42:05.305Z,93225.45
2019-05-09T19:44:36.121Z,93225.91
2019-05-09T19:47:05.118Z,93232.77
2019-05-09T19:49:34.050Z,93224.19
2019-05-09T19:52:02.960Z,93228.66
2019-05-09T19:54:31.787Z,93226.89
2019-05-09T19:57:00.489Z,93238.00
2019-05-09T19:59:29.333Z,93239.81
2019-05-09T20:02:00.573Z,93237.07
2019-05-09T20:04:29.124Z,93235.59
2019-05-09T20:06:58.013Z,93234.02
2019-05-09T20:09:28.543Z,93236.22
2019-05-09T20:12:00.025Z,93232.84
2019-05-09T20:14:36.058Z,93240.62
2019-05-09T20:17:04.690Z,93242.01
2019-05-09T20:19:33.468Z,93249.55
2019-05-09T20:22:02.098Z,93234.55
2019-05-09T20:24:31.074Z,93246.77
2019-05-09T20:26:59.716Z,93249.10
2019-05-09T20:29:30.347Z,93253.27
2019-05-09T20:31:58.943Z,93252.56
2019-05-09T20:34:29.245Z,93259.02
2019-05-09T20:36:57.941Z,93256.60
2019-05-09T20:39:26.812Z,93258.73
2019-05-09T20:41:55.709Z,93259.24
2019-05-09T20:44:24.514Z,93257.39
2019-05-09T20:46:54.881Z,93266.81
2019-05-09T20:49:23.698Z,93262.80
2019-05-09T20:51:52.725Z,93263.59
2019-05-09T20:54:21.761Z,93269.06
2019-05-09T20:56:50.668Z,93274.45
2019-05-09T20:59:19.574Z,93272.09
2019-05-09T21:01:48.557Z,93265.01
2019-05-09T21:04:17.371Z,93280.88
2019-05-09T21:06:47.401Z,93283.36
2019-05-09T21:09:16.246Z,93288.53
2019-05-09T21:11:45.053Z,93287.92
2019-05-09T21:14:13.947Z,93293.37
2019-05-09T21:16:42.818Z,93290.50
2019-05-09T21:19:11.679Z,93296.23
2019-05-09T21:21:40.492Z,93297.59
2019-05-09T21:24:09.369Z,93300.13
2019-05-09T21:26:38.187Z,93299.23
2019-05-09T21:29:07.058Z,93300.24
2019-05-09T21:31:35.901Z,93299.69
2019-05-09T21:34:04.784Z,93310.21
2019-05-09T21:36:34.991Z,93309.14
2019-05-09T21:39:05.235Z,93316.29
2019-05-09T21:41:33.915Z,93315.33
2019-05-09T21:44:02.615Z,93320.28
2019-05-09T21:46:31.334Z,93313.81
2019-05-09T21:49:00.034Z,93316.74
2019-05-09T21:51:28.783Z,93320.06
2019-05-09T21:53:57.434Z,93320.73
2019-05-09T21:56:27.125Z,93321.75
2019-05-09T21:58:55.754Z,93313.42
2019-05-09T22:01:24.433Z,93318.38
2019-05-09T22:03:53.091Z,93319.89
2019-05-09T22:06:21.799Z,93315.27
2019-05-09T22:08:50.443Z,93316.86
2019-05-09T22:11:19.135Z,93320.03
2019-05-09T22:13:47.780Z,93316.06
2019-05-09T22:16:16.416Z,93314.52
2019-05-09T22:18:45.091Z,93330.20
2019-05-09T22:21:15.271Z,93331.94
2019-05-09T22:23:55.421Z,93332.28
2019-05-09T22:26:14.296Z,93337.17
2019-05-09T22:28:42.980Z,93336.33
2019-05-09T22:31:11.640Z,93338.44
2019-05-09T22:33:40.370Z,93336.73
2019-05-09T22:36:08.984Z,93342.75
2019-05-09T22:38:37.677Z,93353.75
2019-05-09T22:41:06.579Z,93353.08
2019-05-09T22:43:35.264Z,93349.19
2019-05-09T22:46:03.933Z,93353.87
2019-05-09T22:48:32.621Z,93346.09
2019-05-09T22:51:01.241Z,93344.02
2019-05-09T22:53:29.931Z,93343.05
2019-05-09T22:55:58.585Z,93342.32
2019-05-09T22:58:27.275Z,93341.70
2019-05-09T23:00:55.903Z,93341.92
2019-05-09T23:03:24.531Z,93345.96
2019-05-09T23:05:53.201Z,93351.95
2019-05-09T23:08:21.863Z,93356.81
2019-05-09T23:10:53.390Z,93353.31
2019-05-09T23:13:20.904Z,93347.51
2019-05-09T23:15:49.580Z,93348.77
2019-05-09T23:18:18.196Z,93348.61
2019-05-09T23:20:48.838Z,93349.05
2019-05-09T23:23:27.805Z,93340.16
2019-05-09T23:25:56.486Z,93337.16
2019-05-09T23:28:25.657Z,93346.78
2019-05-09T23:30:55.933Z,93343.19
2019-05-09T23:33:26.196Z,93341.39
2019-05-09T23:35:54.826Z,93348.14
2019-05-09T23:38:23.446Z,93355.61
2019-05-09T23:40:52.120Z,93357.19
2019-05-09T23:43:20.738Z,93360.81
2019-05-09T23:45:49.431Z,93356.87
2019-05-09T23:48:18.062Z,93351.98
2019-05-09T23:50:46.662Z,93351.09
2019-05-09T23:53:18.698Z,93359.08
2019-05-09T23:56:05.101Z,93362.17
2019-05-09T23:58:51.735Z,93361.30
